Südanflug-Wetter

Südanflüge sind sowohl am Euroairport Basel-Mulhouse-Freiburg als auch am Flughafen Unique Zürich ein Thema für die Anwohner. In Basel hängen Südanflüge von den Windverhältnissen ab. Für den Euroairport Basel-Mulhouse-Freiburg bereitet MeteoNews deshalb aktuelle Winddaten auf, die direkt auf der Homepage des Flughafens eingebunden werden. Angaben zum Flughafen Zürich finden Sie hier.

In Zürich sind Südanflüge auf die Piste 34 möglich, wenn die horizontale Sichtweite mindestens 750 m beträgt und die Wolkenuntergrenze im Anflugsektor nicht tiefer als 300 Fuss (knapp 100 m) liegt (diese Werte gelten seit dem 1. November 2004).

Prognose für Südanflüge

Am Sonntag sind Südanflüge infolge von Nebel nicht oder nur eingeschränkt möglich.
(Prognose ohne Gewähr. Die Vorhersage wird mehrmals täglich aktualisiert. Verantwortlicher Meteorologe: Klaus Marquardt, 21.10.2018 05:18)

Analyse der letzten METAR-Messungen

Unser Tool wertet die letzten 20 offiziellen Wettermeldungen (METAR) des Flughafens Zürich aus und entscheidet aufgrund der beiden Werte für Sichtweite und Ceiling (Hauptwolkenuntergrenze), ob Südanflüge nach obiger Definition möglich wären. Allerdings repräsentiert der Wert für die Wolkenuntergrenze in der METAR-Meldung nicht die Bewölkung im Anflugsektor sondern generell um den Flughafen. Da über die Bewölkung im Anflugsektor kurzfristig aufgrund von Beobachtungen des Towers und von Piloten entschieden wird, kann die Angabe unseres Tools in gewissen Fällen von den realen Entscheiden der Flugsicherung abweichen.

Südanflüge Datum Uhrzeit Sichtweite Ceiling Vollständige METAR-Meldung
unklar 2018-10-21 09:20:00 1000 m 90 m LSZH 210720Z 28003KT 1000 R14/P2000N R16/P2000N R34/P2000N PRFG FEW001 BKN003 07/07 Q1027 BECMG 2000 BKN006
unklar 2018-10-21 08:50:00 800 m 90 m LSZH 210650Z 28004KT 0800 R14/1900U R16/1700N R28/P2000N R34/1900U PRFG FEW001 BKN003 07/07 Q1027 BECMG 1500 BR BKN005
nicht möglich 2018-10-21 08:20:00 500 m 60 m LSZH 210620Z 28003KT 0500 R14/0900D R16/0800U R28/P2000N R34/0800U FG VV002 06/06 Q1027 BECMG 1500 BR BKN003
nicht möglich 2018-10-21 07:50:00 350 m 60 m LSZH 210550Z 30004KT 0350 R14/1200U R16/0650N R28/1000N R34/0450N FG VV002 06/06 Q1027 BECMG 0800
nicht möglich 2018-10-21 07:20:00 100 m 30 m LSZH 210520Z 29003KT 0100 R14/0400N R16/0375N R28/0275N R34/0325N FG VV001 05/05 Q1027 TEMPO 0400 VV002
nicht möglich 2018-10-21 06:50:00 100 m 30 m LSZH 210450Z 29004KT 0100 R14/0275N R16/0250N R28/0250N R34/0400N FG VV001 05/05 Q1027 TEMPO 0200
nicht möglich 2018-10-21 06:20:00 50 m 30 m LSZH 210420Z VRB01KT 0050 R14/0250N R16/0300N R28/0300N R34/0700D FG VV001 06/05 Q1027 TEMPO 0200
nicht möglich 2018-10-21 05:50:00 50 m 30 m LSZH 210350Z VRB01KT 0050 R14/0250D R16/0375U R28/P2000N R34/P2000N FG VV001 04/04 Q1027 TEMPO 0200
nicht möglich 2018-10-21 05:20:00 100 m 30 m LSZH 210320Z VRB01KT 0100 0050NW R14/0250D R16/0375U R28/P2000N R34/P2000N PRFG VV001 04/04 Q1027 TEMPO 0300
nicht möglich 2018-10-21 04:50:00 300 m LSZH 210250Z 29005KT 0300 0050NW R14/0250D R16/0375U R28/P2000N R34/P2000N PRFG NSC 04/04 Q1027 TEMPO 0100
nicht möglich 2018-10-21 04:20:00 600 m LSZH 210220Z 30002KT 0600 R14/0250D R16/0375U R28/P2000N R34/P2000N BCFG NSC 05/05 Q1027 TEMPO 0200
nicht möglich 2018-10-21 03:50:00 400 m LSZH 210150Z 00000KT 0400 R14/0250D R16/0375U R28/P2000N R34/P2000N BCFG NSC 04/04 Q1027 TEMPO 0150
möglich 2018-10-21 03:20:00 2000 m LSZH 210120Z VRB02KT 2000 0800N R14/P2000N R16/P2000N R28/P2000N R34/P2000N BCFG NSC 06/06 Q1027 TEMPO 1200
möglich 2018-10-21 02:50:00 2500 m LSZH 210050Z 23004KT 210V290 2500 BCFG NSC 07/07 Q1028 TEMPO 1200
möglich 2018-10-21 01:50:00 2800 m LSZH 202350Z 30005KT 2800 BR NSC 08/07 Q1028 NOSIG
möglich 2018-10-21 01:20:00 2800 m LSZH 202320Z 32003KT 280V340 2800 BR NSC 08/07 Q1028 NOSIG
möglich 2018-10-21 00:50:00 2800 m LSZH 202250Z 34003KT 2800 1300N R14/P2000N R16/P2000N R28/P2000N R34/P2000N BR NSC 09/08 Q1028 NOSIG
möglich 2018-10-21 00:20:00 2800 m LSZH 202220Z 35004KT 2800 1300N R14/P2000N R16/P2000N R28/P2000N R34/P2000N BR NSC 09/08 Q1028 BECMG 1200 BCFG
möglich 2018-10-20 23:50:00 2800 m LSZH 202150Z 31003KT 2800 1200N R14/P2000N R16/P2000N R28/P2000N R34/P2000N BR NSC 07/07 Q1029 BECMG 2500 BCFG
möglich 2018-10-20 23:20:00 4000 m LSZH 202120Z VRB02KT 4000 1900N BR NSC 09/08 Q1029 BECMG 2500 BCFG